Terminal Aerodrome Forecast
Issued by NWS Louisville, KY

Home | Current Version | Previous Version | Text Only | Print | Product List | Glossary On
Versions: 1 2 3 4 5 6 7 8 9 10 11 12 13 14 15 16 17 18 19
203
FTUS43 KLMK 250526
TAFLEX
TAF
KLEX 250526Z 2506/2606 22015G25KT 4SM -SHRA OVC017
      TEMPO 2506/2507 2SM TSRA BKN012CB
     FM250800 24014KT P6SM -SHRA BKN022
     FM251200 27010KT P6SM BKN250
     FM260100 VRB04KT P6SM SCT250=

USA.gov is the U.S. government's official web portal to all federal, state and local government web resources and services.